Terminal Aerodrome Forecast
Issued by NWS

Home | Current Version | Previous Version | Text Only | Print | Product List | Glossary On
Versions: 1 2 3 4 5 6 7 8 9 10 11 12 13 14 15 16 17
000
FTUS43 KICT 071429 AAA
TAFCNU
TAF AMD
KCNU 071429Z 0714/0812 02012G18KT 4SM -DZ VCSH SCT007 OVC015
      TEMPO 0714/0717 2SM -SHRA OVC007
     FM071700 02009KT P6SM VCSH SCT015 OVC025
     FM072300 06007KT P6SM VCTS OVC035CB=

USA.gov is the U.S. government's official web portal to all federal, state and local government web resources and services.